sensor_id;sensor_type;location;lat;lon;timestamp;pressure;altitude;pressure_sealevel;temperature;humidity
23321;BME280;33376;51.306;4.752;2022-10-28T00:00:21;59042.00;;;0.35;0.00
23321;BME280;33376;51.306;4.752;2022-10-28T00:02:47;59042.00;;;0.35;0.00
23321;BME280;33376;51.306;4.752;2022-10-28T00:05:12;59042.00;;;0.35;0.00
23321;BME280;33376;51.306;4.752;2022-10-28T00:07:37;59042.00;;;0.35;0.00
23321;BME280;33376;51.306;4.752;2022-10-28T00:10:02;59042.00;;;0.35;0.00
23321;BME280;33376;51.306;4.752;2022-10-28T00:12:28;59042.00;;;0.35;0.00
23321;BME280;33376;51.306;4.752;2022-10-28T00:14:53;59042.00;;;0.35;0.00
23321;BME280;33376;51.306;4.752;2022-10-28T00:17:18;59042.00;;;0.35;0.00
23321;BME280;33376;51.306;4.752;2022-10-28T00:19:43;59042.00;;;0.35;0.00
23321;BME280;33376;51.306;4.752;2022-10-28T00:22:09;59042.00;;;0.35;0.00
23321;BME280;33376;51.306;4.752;2022-10-28T00:24:34;59042.00;;;0.35;0.00
23321;BME280;33376;51.306;4.752;2022-10-28T00:26:59;59042.00;;;0.35;0.00
23321;BME280;33376;51.306;4.752;2022-10-28T00:29:24;59042.00;;;0.35;0.00
23321;BME280;33376;51.306;4.752;2022-10-28T00:31:50;59042.00;;;0.35;0.00
23321;BME280;33376;51.306;4.752;2022-10-28T00:34:17;59042.00;;;0.35;0.00
23321;BME280;33376;51.306;4.752;2022-10-28T00:36:43;59042.00;;;0.35;0.00
23321;BME280;33376;51.306;4.752;2022-10-28T00:39:13;59042.00;;;0.35;0.00
23321;BME280;33376;51.306;4.752;2022-10-28T00:41:40;59042.00;;;0.35;0.00
23321;BME280;33376;51.306;4.752;2022-10-28T00:46:50;59042.00;;;0.35;0.00
23321;BME280;33376;51.306;4.752;2022-10-28T00:49:21;59042.00;;;0.35;0.00
23321;BME280;33376;51.306;4.752;2022-10-28T00:51:48;59042.00;;;0.35;0.00
23321;BME280;33376;51.306;4.752;2022-10-28T00:54:15;59042.00;;;0.35;0.00
23321;BME280;33376;51.306;4.752;2022-10-28T00:56:42;59042.00;;;0.35;0.00
23321;BME280;33376;51.306;4.752;2022-10-28T00:59:15;59042.00;;;0.35;0.00
23321;BME280;33376;51.306;4.752;2022-10-28T01:01:42;59042.00;;;0.35;0.00
23321;BME280;33376;51.306;4.752;2022-10-28T01:04:07;59042.00;;;0.35;0.00
23321;BME280;33376;51.306;4.752;2022-10-28T01:06:33;72806.28;;;-0.04;nan
23321;BME280;33376;51.306;4.752;2022-10-28T01:08:58;72821.53;;;-0.04;nan
23321;BME280;33376;51.306;4.752;2022-10-28T01:11:26;72824.59;;;-0.04;nan
23321;BME280;33376;51.306;4.752;2022-10-28T01:21:44;59042.00;;;0.35;0.00
23321;BME280;33376;51.306;4.752;2022-10-28T01:34:42;59042.00;;;0.35;0.00
23321;BME280;33376;51.306;4.752;2022-10-28T01:37:16;59042.00;;;0.35;0.00
23321;BME280;33376;51.306;4.752;2022-10-28T01:39:45;59042.00;;;0.35;0.00
23321;BME280;33376;51.306;4.752;2022-10-28T01:44:51;59042.00;;;0.35;0.00
23321;BME280;33376;51.306;4.752;2022-10-28T01:47:19;59042.00;;;0.35;0.00
23321;BME280;33376;51.306;4.752;2022-10-28T01:49:58;59042.00;;;0.35;0.00
23321;BME280;33376;51.306;4.752;2022-10-28T01:52:25;59042.00;;;0.35;0.00
23321;BME280;33376;51.306;4.752;2022-10-28T01:54:54;59042.00;;;0.35;0.00
23321;BME280;33376;51.306;4.752;2022-10-28T01:57:21;59042.00;;;0.35;0.00
23321;BME280;33376;51.306;4.752;2022-10-28T01:59:47;59042.00;;;0.35;0.00
23321;BME280;33376;51.306;4.752;2022-10-28T02:02:14;59042.00;;;0.35;0.00
23321;BME280;33376;51.306;4.752;2022-10-28T02:04:39;59042.00;;;0.35;0.00
23321;BME280;33376;51.306;4.752;2022-10-28T02:07:05;59042.00;;;0.35;0.00
23321;BME280;33376;51.306;4.752;2022-10-28T02:12:03;59042.00;;;0.35;0.00
23321;BME280;33376;51.306;4.752;2022-10-28T02:20:01;59042.00;;;0.35;0.00
23321;BME280;33376;51.306;4.752;2022-10-28T02:22:39;59042.00;;;0.35;0.00
23321;BME280;33376;51.306;4.752;2022-10-28T02:25:14;59042.00;;;0.35;0.00
23321;BME280;33376;51.306;4.752;2022-10-28T02:27:43;59042.00;;;0.35;0.00
23321;BME280;33376;51.306;4.752;2022-10-28T02:30:19;59042.00;;;0.35;0.00
23321;BME280;33376;51.306;4.752;2022-10-28T02:32:52;59042.00;;;0.35;0.00
23321;BME280;33376;51.306;4.752;2022-10-28T02:35:21;59042.00;;;0.35;0.00
23321;BME280;33376;51.306;4.752;2022-10-28T02:37:49;59042.00;;;0.35;0.00
23321;BME280;33376;51.306;4.752;2022-10-28T02:40:18;59042.00;;;0.35;0.00
23321;BME280;33376;51.306;4.752;2022-10-28T02:42:49;59042.00;;;0.35;0.00
23321;BME280;33376;51.306;4.752;2022-10-28T02:45:24;59042.00;;;0.35;0.00
23321;BME280;33376;51.306;4.752;2022-10-28T02:47:51;59042.00;;;0.35;0.00
23321;BME280;33376;51.306;4.752;2022-10-28T02:50:19;59042.00;;;0.35;0.00
23321;BME280;33376;51.306;4.752;2022-10-28T02:52:47;59042.00;;;0.35;0.00
23321;BME280;33376;51.306;4.752;2022-10-28T02:55:13;59042.00;;;0.35;0.00
23321;BME280;33376;51.306;4.752;2022-10-28T02:57:40;59042.00;;;0.35;0.00
23321;BME280;33376;51.306;4.752;2022-10-28T03:00:08;59042.00;;;0.35;0.00
23321;BME280;33376;51.306;4.752;2022-10-28T03:02:33;59042.00;;;0.35;0.00
23321;BME280;33376;51.306;4.752;2022-10-28T03:04:59;59042.00;;;0.35;0.00
23321;BME280;33376;51.306;4.752;2022-10-28T03:07:24;59042.00;;;0.35;0.00
23321;BME280;33376;51.306;4.752;2022-10-28T03:09:49;59042.00;;;0.35;0.00
23321;BME280;33376;51.306;4.752;2022-10-28T03:12:15;59042.00;;;0.35;0.00
23321;BME280;33376;51.306;4.752;2022-10-28T03:14:40;59042.00;;;0.35;0.00
23321;BME280;33376;51.306;4.752;2022-10-28T03:17:06;59042.00;;;0.35;0.00
23321;BME280;33376;51.306;4.752;2022-10-28T03:19:31;59042.00;;;0.35;0.00
23321;BME280;33376;51.306;4.752;2022-10-28T03:21:57;59042.00;;;0.35;0.00
23321;BME280;33376;51.306;4.752;2022-10-28T03:24:22;59042.00;;;0.35;0.00
23321;BME280;33376;51.306;4.752;2022-10-28T03:26:47;59042.00;;;0.35;0.00
23321;BME280;33376;51.306;4.752;2022-10-28T03:29:12;59042.00;;;0.35;0.00
23321;BME280;33376;51.306;4.752;2022-10-28T03:31:38;59042.00;;;0.35;0.00
23321;BME280;33376;51.306;4.752;2022-10-28T03:34:03;59042.00;;;0.35;0.00
23321;BME280;33376;51.306;4.752;2022-10-28T03:36:28;59042.00;;;0.35;0.00
23321;BME280;33376;51.306;4.752;2022-10-28T03:38:53;59042.00;;;0.35;0.00
23321;BME280;33376;51.306;4.752;2022-10-28T03:41:19;59042.00;;;0.35;0.00
23321;BME280;33376;51.306;4.752;2022-10-28T03:43:44;59042.00;;;0.35;0.00
23321;BME280;33376;51.306;4.752;2022-10-28T03:46:09;59042.00;;;0.35;0.00
23321;BME280;33376;51.306;4.752;2022-10-28T03:48:35;59042.00;;;0.35;0.00
23321;BME280;33376;51.306;4.752;2022-10-28T03:51:00;59042.00;;;0.35;0.00
23321;BME280;33376;51.306;4.752;2022-10-28T03:53:25;59042.00;;;0.35;0.00
23321;BME280;33376;51.306;4.752;2022-10-28T03:55:54;59042.00;;;0.35;0.00
23321;BME280;33376;51.306;4.752;2022-10-28T03:58:19;59042.00;;;0.35;0.00
23321;BME280;33376;51.306;4.752;2022-10-28T04:00:46;59042.00;;;0.35;0.00
23321;BME280;33376;51.306;4.752;2022-10-28T04:03:11;59042.00;;;0.35;0.00
23321;BME280;33376;51.306;4.752;2022-10-28T04:05:36;59042.00;;;0.35;0.00
23321;BME280;33376;51.306;4.752;2022-10-28T04:08:01;59042.00;;;0.35;0.00
23321;BME280;33376;51.306;4.752;2022-10-28T04:10:27;59042.00;;;0.35;0.00
23321;BME280;33376;51.306;4.752;2022-10-28T04:12:52;59042.00;;;0.35;0.00
23321;BME280;33376;51.306;4.752;2022-10-28T04:15:17;59042.00;;;0.35;0.00
23321;BME280;33376;51.306;4.752;2022-10-28T04:17:42;59042.00;;;0.35;0.00
23321;BME280;33376;51.306;4.752;2022-10-28T04:20:08;59042.00;;;0.35;0.00
23321;BME280;33376;51.306;4.752;2022-10-28T04:22:33;59042.00;;;0.35;0.00
23321;BME280;33376;51.306;4.752;2022-10-28T04:24:58;59042.00;;;0.35;0.00
23321;BME280;33376;51.306;4.752;2022-10-28T04:27:24;59042.00;;;0.35;0.00
23321;BME280;33376;51.306;4.752;2022-10-28T04:29:49;59042.00;;;0.35;0.00
23321;BME280;33376;51.306;4.752;2022-10-28T04:32:14;59042.00;;;0.35;0.00
23321;BME280;33376;51.306;4.752;2022-10-28T04:34:39;59042.00;;;0.35;0.00
23321;BME280;33376;51.306;4.752;2022-10-28T04:37:04;59042.00;;;0.35;0.00
23321;BME280;33376;51.306;4.752;2022-10-28T04:39:30;59042.00;;;0.35;0.00
23321;BME280;33376;51.306;4.752;2022-10-28T04:41:55;59042.00;;;0.35;0.00
23321;BME280;33376;51.306;4.752;2022-10-28T04:44:20;59042.00;;;0.35;0.00
23321;BME280;33376;51.306;4.752;2022-10-28T04:46:45;59042.00;;;0.35;0.00
23321;BME280;33376;51.306;4.752;2022-10-28T04:49:11;59042.00;;;0.35;0.00
23321;BME280;33376;51.306;4.752;2022-10-28T04:51:36;73079.41;;;-0.04;nan
23321;BME280;33376;51.306;4.752;2022-10-28T04:54:01;73114.50;;;-0.04;nan
23321;BME280;33376;51.306;4.752;2022-10-28T04:56:26;73119.06;;;-0.04;nan
23321;BME280;33376;51.306;4.752;2022-10-28T04:58:52;73117.56;;;-0.04;nan
23321;BME280;33376;51.306;4.752;2022-10-28T05:01:18;73116.03;;;-0.04;nan
23321;BME280;33376;51.306;4.752;2022-10-28T05:03:43;73106.88;;;-0.04;nan
23321;BME280;33376;51.306;4.752;2022-10-28T05:06:08;73119.06;;;-0.04;nan
23321;BME280;33376;51.306;4.752;2022-10-28T05:08:33;73114.50;;;-0.04;nan
23321;BME280;33376;51.306;4.752;2022-10-28T05:10:58;73126.72;;;-0.03;nan
23321;BME280;33376;51.306;4.752;2022-10-28T05:13:24;73122.13;;;-0.03;nan
23321;BME280;33376;51.306;4.752;2022-10-28T05:15:49;73129.75;;;-0.03;nan
23321;BME280;33376;51.306;4.752;2022-10-28T05:18:14;73140.44;;;-0.03;nan
23321;BME280;33376;51.306;4.752;2022-10-28T05:20:40;73158.75;;;-0.03;nan
23321;BME280;33376;51.306;4.752;2022-10-28T05:23:05;73170.97;;;-0.03;nan
23321;BME280;33376;51.306;4.752;2022-10-28T05:25:30;73177.06;;;-0.03;nan
23321;BME280;33376;51.306;4.752;2022-10-28T05:27:58;73183.16;;;-0.03;nan
23321;BME280;33376;51.306;4.752;2022-10-28T05:30:24;73198.44;;;-0.03;nan
23321;BME280;33376;51.306;4.752;2022-10-28T05:32:50;73206.06;;;-0.03;nan
23321;BME280;33376;51.306;4.752;2022-10-28T05:35:15;73204.53;;;-0.03;nan
23321;BME280;33376;51.306;4.752;2022-10-28T05:37:40;73209.09;;;-0.03;nan
23321;BME280;33376;51.306;4.752;2022-10-28T05:40:07;73221.31;;;-0.03;nan
23321;BME280;33376;51.306;4.752;2022-10-28T05:42:32;73219.78;;;-0.03;nan
23321;BME280;33376;51.306;4.752;2022-10-28T05:44:57;73225.88;;;-0.03;nan
23321;BME280;33376;51.306;4.752;2022-10-28T05:47:23;73227.41;;;-0.03;nan
23321;BME280;33376;51.306;4.752;2022-10-28T05:49:48;73212.16;;;-0.03;nan
23321;BME280;33376;51.306;4.752;2022-10-28T05:52:13;73204.53;;;-0.03;nan
23321;BME280;33376;51.306;4.752;2022-10-28T05:54:38;73219.78;;;-0.03;nan
23321;BME280;33376;51.306;4.752;2022-10-28T05:57:04;73242.69;;;-0.03;nan
23321;BME280;33376;51.306;4.752;2022-10-28T05:59:29;73256.41;;;-0.03;nan
23321;BME280;33376;51.306;4.752;2022-10-28T06:01:54;73273.19;;;-0.03;nan
23321;BME280;33376;51.306;4.752;2022-10-28T06:04:19;73291.50;;;-0.03;nan
23321;BME280;33376;51.306;4.752;2022-10-28T06:06:44;73293.03;;;-0.03;nan
23321;BME280;33376;51.306;4.752;2022-10-28T06:09:10;73294.56;;;-0.03;nan
23321;BME280;33376;51.306;4.752;2022-10-28T06:11:35;73296.09;;;-0.03;nan
23321;BME280;33376;51.306;4.752;2022-10-28T06:14:00;73305.25;;;-0.03;nan
23321;BME280;33376;51.306;4.752;2022-10-28T06:16:26;73303.72;;;-0.03;nan
23321;BME280;33376;51.306;4.752;2022-10-28T06:18:51;73286.94;;;-0.03;nan
23321;BME280;33376;51.306;4.752;2022-10-28T06:21:16;73293.03;;;-0.03;nan
23321;BME280;33376;51.306;4.752;2022-10-28T06:23:41;73305.25;;;-0.03;nan
23321;BME280;33376;51.306;4.752;2022-10-28T06:26:08;73312.88;;;-0.03;nan
23321;BME280;33376;51.306;4.752;2022-10-28T06:28:33;73317.44;;;-0.03;nan
23321;BME280;33376;51.306;4.752;2022-10-28T06:31:05;73322.03;;;-0.03;nan
23321;BME280;33376;51.306;4.752;2022-10-28T06:33:31;73328.13;;;-0.03;nan
23321;BME280;33376;51.306;4.752;2022-10-28T06:36:00;73332.69;;;-0.03;nan
23321;BME280;33376;51.306;4.752;2022-10-28T06:38:25;73341.84;;;-0.03;nan
23321;BME280;33376;51.306;4.752;2022-10-28T06:40:51;73343.38;;;-0.03;nan
23321;BME280;33376;51.306;4.752;2022-10-28T06:43:16;73329.66;;;-0.03;nan
23321;BME280;33376;51.306;4.752;2022-10-28T06:45:41;73332.69;;;-0.03;nan
23321;BME280;33376;51.306;4.752;2022-10-28T06:48:08;73328.13;;;-0.03;nan
23321;BME280;33376;51.306;4.752;2022-10-28T06:50:34;73322.03;;;-0.03;nan
23321;BME280;33376;51.306;4.752;2022-10-28T06:52:59;73323.56;;;-0.03;nan
23321;BME280;33376;51.306;4.752;2022-10-28T06:55:25;73331.19;;;-0.03;nan
23321;BME280;33376;51.306;4.752;2022-10-28T06:57:51;73329.66;;;-0.03;nan
23321;BME280;33376;51.306;4.752;2022-10-28T07:00:16;73366.28;;;-0.03;nan
23321;BME280;33376;51.306;4.752;2022-10-28T07:02:41;73363.22;;;-0.03;nan
23321;BME280;33376;51.306;4.752;2022-10-28T07:05:07;73355.59;;;-0.03;nan
23321;BME280;33376;51.306;4.752;2022-10-28T07:07:32;73352.53;;;-0.03;nan
23321;BME280;33376;51.306;4.752;2022-10-28T07:09:57;73347.97;;;-0.03;nan
23321;BME280;33376;51.306;4.752;2022-10-28T07:12:23;73346.44;;;-0.03;nan
23321;BME280;33376;51.306;4.752;2022-10-28T07:14:48;73332.69;;;-0.03;nan
23321;BME280;33376;51.306;4.752;2022-10-28T07:17:13;73312.88;;;-0.04;nan
23321;BME280;33376;51.306;4.752;2022-10-28T07:19:38;73294.56;;;-0.04;nan
23321;BME280;33376;51.306;4.752;2022-10-28T07:22:03;73270.16;;;-0.04;nan
23321;BME280;33376;51.306;4.752;2022-10-28T07:24:29;73247.25;;;-0.04;nan
23321;BME280;33376;51.306;4.752;2022-10-28T07:26:54;73230.47;;;-0.04;nan
23321;BME280;33376;51.306;4.752;2022-10-28T07:29:19;73212.16;;;-0.04;nan
23321;BME280;33376;51.306;4.752;2022-10-28T07:31:44;73186.22;;;-0.04;nan
23321;BME280;33376;51.306;4.752;2022-10-28T07:34:10;73166.38;;;-0.04;nan
23321;BME280;33376;51.306;4.752;2022-10-28T07:36:35;73145.03;;;-0.04;nan
23321;BME280;33376;51.306;4.752;2022-10-28T07:39:00;73126.72;;;-0.04;nan
23321;BME280;33376;51.306;4.752;2022-10-28T07:41:25;73105.34;;;-0.04;nan
23321;BME280;33376;51.306;4.752;2022-10-28T07:43:51;73103.81;;;-0.04;nan
23321;BME280;33376;51.306;4.752;2022-10-28T07:46:17;73087.03;;;-0.04;nan
23321;BME280;33376;51.306;4.752;2022-10-28T07:48:42;73056.53;;;-0.04;nan
23321;BME280;33376;51.306;4.752;2022-10-28T07:51:11;73050.41;;;-0.04;nan
23321;BME280;33376;51.306;4.752;2022-10-28T07:53:36;73026.00;;;-0.04;nan
23321;BME280;33376;51.306;4.752;2022-10-28T07:56:06;72987.84;;;-0.04;nan
23321;BME280;33376;51.306;4.752;2022-10-28T07:58:34;72961.91;;;-0.04;nan
23321;BME280;33376;51.306;4.752;2022-10-28T08:01:05;72931.41;;;-0.04;nan
23321;BME280;33376;51.306;4.752;2022-10-28T08:03:31;72890.19;;;-0.04;nan
23321;BME280;33376;51.306;4.752;2022-10-28T08:06:01;72838.31;;;-0.04;nan
23321;BME280;33376;51.306;4.752;2022-10-28T08:08:27;72786.44;;;-0.04;nan
23321;BME280;33376;51.306;4.752;2022-10-28T08:10:53;72726.94;;;-0.04;nan
23321;BME280;33376;51.306;4.752;2022-10-28T08:13:18;72681.16;;;-0.04;nan
23321;BME280;33376;51.306;4.752;2022-10-28T08:15:50;72614.00;;;-0.04;nan
23321;BME280;33376;51.306;4.752;2022-10-28T08:18:15;72575.88;;;-0.04;nan
23321;BME280;33376;51.306;4.752;2022-10-28T08:20:41;72537.72;;;-0.04;nan
23321;BME280;33376;51.306;4.752;2022-10-28T08:23:06;72481.25;;;-0.04;nan
23321;BME280;33376;51.306;4.752;2022-10-28T08:25:31;72432.44;;;-0.04;nan
23321;BME280;33376;51.306;4.752;2022-10-28T08:27:57;72391.22;;;-0.04;nan
23321;BME280;33376;51.306;4.752;2022-10-28T08:30:22;72324.09;;;-0.04;nan
23321;BME280;33376;51.306;4.752;2022-10-28T08:32:47;72284.41;;;-0.04;nan
23321;BME280;33376;51.306;4.752;2022-10-28T08:35:13;72235.59;;;-0.05;nan
23321;BME280;33376;51.306;4.752;2022-10-28T08:37:38;72208.13;;;-0.05;nan
23321;BME280;33376;51.306;4.752;2022-10-28T08:40:03;72154.72;;;-0.05;nan
23321;BME280;33376;51.306;4.752;2022-10-28T08:42:48;72125.72;;;-0.05;nan
23321;BME280;33376;51.306;4.752;2022-10-28T08:45:19;72104.38;;;-0.05;nan
23321;BME280;33376;51.306;4.752;2022-10-28T08:50:29;72066.22;;;-0.05;nan
23321;BME280;33376;51.306;4.752;2022-10-28T08:55:33;72044.84;;;-0.05;nan
23321;BME280;33376;51.306;4.752;2022-10-28T09:00:30;72038.75;;;-0.05;nan
23321;BME280;33376;51.306;4.752;2022-10-28T09:05:40;72029.59;;;-0.05;nan
23321;BME280;33376;51.306;4.752;2022-10-28T09:08:09;72020.44;;;-0.05;nan
23321;BME280;33376;51.306;4.752;2022-10-28T09:10:52;72017.38;;;-0.05;nan
23321;BME280;33376;51.306;4.752;2022-10-28T09:13:26;72003.66;;;-0.05;nan
23321;BME280;33376;51.306;4.752;2022-10-28T09:18:50;71971.63;;;-0.05;nan
23321;BME280;33376;51.306;4.752;2022-10-28T09:21:22;71963.97;;;-0.05;nan
23321;BME280;33376;51.306;4.752;2022-10-28T09:23:57;71965.50;;;-0.05;nan
23321;BME280;33376;51.306;4.752;2022-10-28T09:26:39;71936.50;;;-0.05;nan
23321;BME280;33376;51.306;4.752;2022-10-28T09:31:57;71896.84;;;-0.05;nan
23321;BME280;33376;51.306;4.752;2022-10-28T09:34:43;71887.69;;;-0.05;nan
23321;BME280;33376;51.306;4.752;2022-10-28T09:39:49;71881.59;;;-0.05;nan
23321;BME280;33376;51.306;4.752;2022-10-28T09:42:22;71875.47;;;-0.05;nan
23321;BME280;33376;51.306;4.752;2022-10-28T09:44:56;71881.59;;;-0.05;nan
23321;BME280;33376;51.306;4.752;2022-10-28T09:47:24;71861.75;;;-0.05;nan
23321;BME280;33376;51.306;4.752;2022-10-28T09:49:52;71841.91;;;-0.05;nan
23321;BME280;33376;51.306;4.752;2022-10-28T09:52:29;71825.13;;;-0.05;nan
23321;BME280;33376;51.306;4.752;2022-10-28T09:54:58;71815.97;;;-0.05;nan
23321;BME280;33376;51.306;4.752;2022-10-28T09:57:28;71805.28;;;-0.05;nan
23321;BME280;33376;51.306;4.752;2022-10-28T09:59:54;71785.44;;;-0.05;nan
23321;BME280;33376;51.306;4.752;2022-10-28T10:02:24;71782.41;;;-0.05;nan
23321;BME280;33376;51.306;4.752;2022-10-28T10:04:50;71764.09;;;-0.05;nan
23321;BME280;33376;51.306;4.752;2022-10-28T10:07:17;71771.72;;;-0.05;nan
23321;BME280;33376;51.306;4.752;2022-10-28T10:09:46;71759.50;;;-0.05;nan
23321;BME280;33376;51.306;4.752;2022-10-28T10:12:12;71753.41;;;-0.05;nan
23321;BME280;33376;51.306;4.752;2022-10-28T10:14:42;71756.47;;;-0.05;nan
23321;BME280;33376;51.306;4.752;2022-10-28T10:17:17;71745.78;;;-0.05;nan
23321;BME280;33376;51.306;4.752;2022-10-28T10:19:56;71741.19;;;-0.05;nan
23321;BME280;33376;51.306;4.752;2022-10-28T10:22:28;71733.56;;;-0.05;nan
23321;BME280;33376;51.306;4.752;2022-10-28T10:24:54;71744.25;;;-0.05;nan
23321;BME280;33376;51.306;4.752;2022-10-28T10:27:19;71722.91;;;-0.05;nan
23321;BME280;33376;51.306;4.752;2022-10-28T10:29:48;71710.69;;;-0.05;nan
23321;BME280;33376;51.306;4.752;2022-10-28T10:32:16;71715.25;;;-0.05;nan
23321;BME280;33376;51.306;4.752;2022-10-28T10:34:47;71690.84;;;-0.05;nan
23321;BME280;33376;51.306;4.752;2022-10-28T10:37:17;71690.84;;;-0.05;nan
23321;BME280;33376;51.306;4.752;2022-10-28T10:39:44;71678.63;;;-0.05;nan
23321;BME280;33376;51.306;4.752;2022-10-28T10:42:15;71693.91;;;-0.05;nan
23321;BME280;33376;51.306;4.752;2022-10-28T10:44:41;71674.06;;;-0.05;nan
23321;BME280;33376;51.306;4.752;2022-10-28T10:49:32;71686.28;;;-0.05;nan
23321;BME280;33376;51.306;4.752;2022-10-28T10:51:59;71658.81;;;-0.05;nan
23321;BME280;33376;51.306;4.752;2022-10-28T10:54:26;71654.22;;;-0.05;nan
23321;BME280;33376;51.306;4.752;2022-10-28T10:56:52;71660.34;;;-0.05;nan
23321;BME280;33376;51.306;4.752;2022-10-28T10:59:25;71654.22;;;-0.05;nan
23321;BME280;33376;51.306;4.752;2022-10-28T11:01:51;71674.06;;;-0.05;nan
23321;BME280;33376;51.306;4.752;2022-10-28T11:04:18;71677.13;;;-0.05;nan
23321;BME280;33376;51.306;4.752;2022-10-28T11:06:48;71690.84;;;-0.05;nan
23321;BME280;33376;51.306;4.752;2022-10-28T11:11:42;71681.69;;;-0.05;nan
23321;BME280;33376;51.306;4.752;2022-10-28T11:16:33;71661.84;;;-0.05;nan
23321;BME280;33376;51.306;4.752;2022-10-28T11:19:19;71643.53;;;-0.06;nan
23321;BME280;33376;51.306;4.752;2022-10-28T11:21:49;71642.03;;;-0.06;nan
23321;BME280;33376;51.306;4.752;2022-10-28T11:29:56;71661.84;;;-0.06;nan
23321;BME280;33376;51.306;4.752;2022-10-28T11:34:57;71667.97;;;-0.05;nan
23321;BME280;33376;51.306;4.752;2022-10-28T11:37:45;71686.28;;;-0.05;nan
23321;BME280;33376;51.306;4.752;2022-10-28T11:45:28;71674.06;;;-0.06;nan
23321;BME280;33376;51.306;4.752;2022-10-28T11:53:50;71690.84;;;-0.06;nan
23321;BME280;33376;51.306;4.752;2022-10-28T12:08:54;71696.94;;;-0.06;nan
23321;BME280;33376;51.306;4.752;2022-10-28T12:23:37;71739.69;;;-0.05;nan
23321;BME280;33376;51.306;4.752;2022-10-28T12:26:03;71762.56;;;-0.05;nan
23321;BME280;33376;51.306;4.752;2022-10-28T12:28:39;71765.63;;;-0.05;nan
23321;BME280;33376;51.306;4.752;2022-10-28T12:31:14;71753.41;;;-0.05;nan
23321;BME280;33376;51.306;4.752;2022-10-28T12:33:43;71765.63;;;-0.05;nan
23321;BME280;33376;51.306;4.752;2022-10-28T12:39:17;71759.50;;;-0.05;nan
23321;BME280;33376;51.306;4.752;2022-10-28T12:44:21;71782.41;;;-0.05;nan
23321;BME280;33376;51.306;4.752;2022-10-28T12:51:56;71759.50;;;-0.05;nan
23321;BME280;33376;51.306;4.752;2022-10-28T12:54:27;71747.31;;;-0.05;nan
23321;BME280;33376;51.306;4.752;2022-10-28T12:59:26;71742.72;;;-0.05;nan
23321;BME280;33376;51.306;4.752;2022-10-28T13:01:55;71745.78;;;-0.05;nan
23321;BME280;33376;51.306;4.752;2022-10-28T13:04:20;71744.25;;;-0.05;nan
23321;BME280;33376;51.306;4.752;2022-10-28T13:15:17;71732.03;;;-0.06;nan
23321;BME280;33376;51.306;4.752;2022-10-28T13:20:13;71738.16;;;-0.06;nan
23321;BME280;33376;51.306;4.752;2022-10-28T13:27:34;71730.53;;;-0.06;nan
23321;BME280;33376;51.306;4.752;2022-10-28T13:29:59;71741.19;;;-0.06;nan
23321;BME280;33376;51.306;4.752;2022-10-28T13:32:33;71733.56;;;-0.06;nan
23321;BME280;33376;51.306;4.752;2022-10-28T13:34:59;71739.69;;;-0.06;nan
23321;BME280;33376;51.306;4.752;2022-10-28T13:37:27;71751.88;;;-0.06;nan
23321;BME280;33376;51.306;4.752;2022-10-28T13:39:53;71771.72;;;-0.06;nan
23321;BME280;33376;51.306;4.752;2022-10-28T13:52:24;71765.63;;;-0.06;nan
23321;BME280;33376;51.306;4.752;2022-10-28T13:57:36;71783.94;;;-0.05;nan
23321;BME280;33376;51.306;4.752;2022-10-28T14:00:05;71788.50;;;-0.05;nan
23321;BME280;33376;51.306;4.752;2022-10-28T14:04:59;71773.25;;;-0.05;nan
23321;BME280;33376;51.306;4.752;2022-10-28T14:07:26;71793.09;;;-0.05;nan
23321;BME280;33376;51.306;4.752;2022-10-28T14:09:54;71786.97;;;-0.05;nan
23321;BME280;33376;51.306;4.752;2022-10-28T14:12:27;71796.13;;;-0.05;nan
23321;BME280;33376;51.306;4.752;2022-10-28T14:14:58;71815.97;;;-0.05;nan
23321;BME280;33376;51.306;4.752;2022-10-28T14:17:35;71828.19;;;-0.05;nan
23321;BME280;33376;51.306;4.752;2022-10-28T14:20:01;71829.69;;;-0.05;nan
23321;BME280;33376;51.306;4.752;2022-10-28T14:22:29;71826.66;;;-0.05;nan
23321;BME280;33376;51.306;4.752;2022-10-28T14:24:54;71823.59;;;-0.05;nan
23321;BME280;33376;51.306;4.752;2022-10-28T14:27:30;71835.81;;;-0.05;nan
23321;BME280;33376;51.306;4.752;2022-10-28T14:32:41;71840.38;;;-0.05;nan
23321;BME280;33376;51.306;4.752;2022-10-28T14:40:07;71861.75;;;-0.05;nan
23321;BME280;33376;51.306;4.752;2022-10-28T14:42:45;71861.75;;;-0.05;nan
23321;BME280;33376;51.306;4.752;2022-10-28T14:45:19;71848.00;;;-0.05;nan
23321;BME280;33376;51.306;4.752;2022-10-28T14:50:33;71848.00;;;-0.05;nan
23321;BME280;33376;51.306;4.752;2022-10-28T14:53:02;71858.69;;;-0.05;nan
23321;BME280;33376;51.306;4.752;2022-10-28T14:55:29;71863.28;;;-0.05;nan
23321;BME280;33376;51.306;4.752;2022-10-28T15:00:36;71860.22;;;-0.05;nan
23321;BME280;33376;51.306;4.752;2022-10-28T15:03:03;71867.84;;;-0.05;nan
23321;BME280;33376;51.306;4.752;2022-10-28T15:05:33;71860.22;;;-0.05;nan
23321;BME280;33376;51.306;4.752;2022-10-28T15:08:01;71875.47;;;-0.05;nan
23321;BME280;33376;51.306;4.752;2022-10-28T15:10:27;71869.38;;;-0.05;nan
23321;BME280;33376;51.306;4.752;2022-10-28T15:12:54;71869.38;;;-0.05;nan
23321;BME280;33376;51.306;4.752;2022-10-28T15:15:22;71851.06;;;-0.05;nan
23321;BME280;33376;51.306;4.752;2022-10-28T15:17:47;71852.59;;;-0.05;nan
23321;BME280;33376;51.306;4.752;2022-10-28T15:20:21;71866.31;;;-0.05;nan
23321;BME280;33376;51.306;4.752;2022-10-28T15:22:46;71863.28;;;-0.05;nan
23321;BME280;33376;51.306;4.752;2022-10-28T15:25:13;71877.00;;;-0.05;nan
23321;BME280;33376;51.306;4.752;2022-10-28T15:27:39;71883.09;;;-0.05;nan
23321;BME280;33376;51.306;4.752;2022-10-28T15:30:15;71898.38;;;-0.05;nan
23321;BME280;33376;51.306;4.752;2022-10-28T15:32:40;71909.06;;;-0.05;nan
23321;BME280;33376;51.306;4.752;2022-10-28T15:37:50;71951.78;;;-0.05;nan
23321;BME280;33376;51.306;4.752;2022-10-28T15:40:20;71968.56;;;-0.05;nan
23321;BME280;33376;51.306;4.752;2022-10-28T15:43:02;71986.88;;;-0.05;nan
23321;BME280;33376;51.306;4.752;2022-10-28T15:45:29;71989.91;;;-0.05;nan
23321;BME280;33376;51.306;4.752;2022-10-28T15:47:56;72011.28;;;-0.05;nan
23321;BME280;33376;51.306;4.752;2022-10-28T15:52:48;72032.66;;;-0.05;nan
23321;BME280;33376;51.306;4.752;2022-10-28T15:57:50;72064.69;;;-0.05;nan
23321;BME280;33376;51.306;4.752;2022-10-28T16:02:48;72107.41;;;-0.05;nan
23321;BME280;33376;51.306;4.752;2022-10-28T16:07:51;72136.41;;;-0.05;nan
23321;BME280;33376;51.306;4.752;2022-10-28T16:10:16;72137.94;;;-0.05;nan
23321;BME280;33376;51.306;4.752;2022-10-28T16:12:42;72145.56;;;-0.05;nan
23321;BME280;33376;51.306;4.752;2022-10-28T16:15:11;72162.34;;;-0.05;nan